Todos
Elcho Island Airport (Elcho Island, Northern Territory) ELC Condições meteorológicas
|
Elcho Island, Northern Territory (ELC / YELD)
Céu Limpo
Vento Ligeiro |
|
27 °C |
ELC Previsão da área de terminais
| Date | Time (ACST) | Flight Rules | Wind Dir. | Speed | Type | Height AGL (ft) | Visibility | Remarks | ||||||
|---|---|---|---|---|---|---|---|---|---|---|---|---|---|---|
| 06-Set | 16:30 | VFR | 20° | 12 kt | Few | 3.000 | >= 6 miles | |||||||
| 06-Set | 15:30 | VFR | 20° | 12 kt | Few | 3.000 | >= 6 miles | |||||||
| 06-Set | 14:30 | VFR | 20° | 12 kt | Few | 3.000 | >= 6 miles | |||||||
| 06-Set | 13:30 | VFR | 20° | 12 kt | Few | 3.000 | >= 6 miles | |||||||
| 06-Set | 12:30 | VFR | 20° | 12 kt | Few | 3.000 | >= 6 miles | |||||||
| 06-Set | 11:30 | VFR | 20° | 12 kt | Few | 3.000 | >= 6 miles | |||||||
| 06-Set | 10:30 | VFR | 20° | 12 kt | Few | 3.000 | >= 6 miles | |||||||
Histórico recente de METAR ELC
| Date | Time (ACST) | Flight Rules | Wind Dir. | Speed | Type | Height AGL (ft) | Visibility | Temp (°C) | Temp (°F) | Dew Point (°C) | Dew Point (°F) | Rel. Humid. | Pressure | Density Altitude | Remarks |
|---|---|---|---|---|---|---|---|---|---|---|---|---|---|---|---|
| 06-Set | 10:30 | n/a | 360° | 10 kt | Missing | 27° | 80° | 23° | 73° | 79% | 1017 mb | 1.429 ft | |||
| 06-Set | 09:30 | n/a | 350° | 5 kt | Missing | 27° | 80° | 22° | 71° | 74% | 1017 mb | 1.429 ft | |||
| 06-Set | 08:30 | n/a | 70° | 5 kt | Missing | 26° | 78° | 23° | 73° | 84% | 1017 mb | 1.309 ft | |||
| 06-Set | 07:30 | n/a | 100° | 4 kt | Missing | 22° | 71° | 22° | 71° | 100% | 1016 mb | 859 ft | |||
| 06-Set | 06:30 | n/a | 120° | 4 kt | Missing | 20° | 68° | 20° | 68° | 100% | 1015 mb | 648 ft | |||
| 06-Set | 05:30 | n/a | 100° | 4 kt | Missing | 20° | 68° | 20° | 68° | 100% | 1015 mb | 648 ft | |||
| 06-Set | 04:30 | n/a | 100° | 4 kt | Missing | 21° | 69° | 21° | 69° | 100% | 1014 mb | 798 ft | |||
| 06-Set | 03:30 | n/a | 80° | 5 kt | Missing | 22° | 71° | 22° | 71° | 100% | 1014 mb | 918 ft | |||
| 06-Set | 02:30 | n/a | 90° | 4 kt | Missing | 22° | 71° | 22° | 71° | 100% | 1014 mb | 918 ft | |||
| 06-Set | 01:30 | n/a | 90° | 4 kt | Missing | 23° | 73° | 22° | 71° | 94% | 1015 mb | 1.008 ft | |||
| 06-Set | 00:30 | n/a | 110° | 4 kt | Missing | 23° | 73° | 22° | 71° | 94% | 1016 mb | 979 ft | |||
| 05-Set | 23:30 | n/a | 100° | 4 kt | Missing | 23° | 73° | 22° | 71° | 94% | 1016 mb | 979 ft | |||
| 05-Set | 22:30 | n/a | 90° | 4 kt | Missing | 24° | 75° | 22° | 71° | 89% | 1016 mb | 1.099 ft | |||
| 05-Set | 21:30 | n/a | 90° | 4 kt | Missing | 24° | 75° | 22° | 71° | 89% | 1017 mb | 1.069 ft | |||
| 05-Set | 20:30 | n/a | 100° | 4 kt | Missing | 25° | 77° | 22° | 71° | 83% | 1016 mb | 1.219 ft | |||
| 05-Set | 19:30 | n/a | 80° | 4 kt | Missing | 25° | 77° | 22° | 71° | 83% | 1015 mb | 1.248 ft | |||
| 05-Set | 18:30 | n/a | 60° | 7 kt | Missing | 26° | 78° | 22° | 71° | 79% | 1014 mb | 1.398 ft | |||
| 05-Set | 17:30 | n/a | 40° | 11 kt | Missing | 28° | 82° | 22° | 71° | 70% | 1014 mb | 1.638 ft | |||
| 05-Set | 16:30 | n/a | 30° | 15 kt | Missing | 29° | 84° | 22° | 71° | 66% | 1013 mb | 1.787 ft | |||
| 05-Set | 15:30 | n/a | 20° | 15 kt | Missing | 29° | 84° | 22° | 71° | 66% | 1014 mb | 1.758 ft | |||
| 05-Set | 14:30 | n/a | 20° | 14 kt | Missing | 30° | 86° | 21° | 69° | 59% | 1014 mb | 1.878 ft | |||
| 05-Set | 13:30 | n/a | 30° | 13 kt | Missing | 29° | 84° | 22° | 71° | 66% | 1015 mb | 1.728 ft | |||
| 05-Set | 12:30 | n/a | 30° | 10 kt | Missing | 30° | 86° | 22° | 71° | 62% | 1016 mb | 1.819 ft | |||
| 05-Set | 11:30 | n/a | 20° | 11 kt | Missing | 28° | 82° | 22° | 71° | 70% | 1016 mb | 1.579 ft |
Entrar
| Seu navegador não suporta. atualize seu navegador |
